createdAt,value
2022-12-31T00:00:39.817Z,20.47
2022-12-31T00:03:09.882Z,27.10
2022-12-31T00:05:37.965Z,23.57
2022-12-31T00:08:05.879Z,16.83
2022-12-31T00:10:39.908Z,25.50
2022-12-31T00:13:10.542Z,25.00
2022-12-31T00:15:39.312Z,25.63
2022-12-31T00:18:08.310Z,19.67
2022-12-31T00:20:40.946Z,20.17
2022-12-31T00:23:10.035Z,17.33
2022-12-31T00:25:38.259Z,12.17
2022-12-31T00:28:06.058Z,18.45
2022-12-31T00:30:35.697Z,17.30
2022-12-31T00:33:03.637Z,14.83
2022-12-31T00:35:31.313Z,18.23
2022-12-31T00:37:59.123Z,14.77
2022-12-31T00:40:29.046Z,22.23
2022-12-31T00:42:56.755Z,16.27
2022-12-31T00:45:24.483Z,22.87
2022-12-31T00:47:53.646Z,27.80
2022-12-31T00:50:21.358Z,30.10
2022-12-31T00:52:49.053Z,23.07
2022-12-31T00:55:17.010Z,29.13
2022-12-31T00:57:44.770Z,23.43
2022-12-31T01:00:14.629Z,19.47
2022-12-31T01:02:42.562Z,20.25
2022-12-31T01:05:11.747Z,22.45
2022-12-31T01:07:39.512Z,21.80
2022-12-31T01:10:08.871Z,16.45
2022-12-31T01:12:36.971Z,17.30
2022-12-31T01:15:06.447Z,20.90
2022-12-31T01:17:34.545Z,24.35
2022-12-31T01:20:02.284Z,23.42
2022-12-31T01:22:31.761Z,20.63
2022-12-31T01:24:59.521Z,22.67
2022-12-31T01:27:27.291Z,22.08
2022-12-31T01:29:55.942Z,25.13
2022-12-31T01:32:23.608Z,22.20
2022-12-31T01:34:51.302Z,21.48
2022-12-31T01:37:19.154Z,14.80
2022-12-31T01:39:48.510Z,18.83
2022-12-31T01:42:16.240Z,22.67
2022-12-31T01:44:52.596Z,20.87
2022-12-31T01:47:39.585Z,20.87
2022-12-31T01:50:15.599Z,17.83
2022-12-31T01:52:48.682Z,18.67
2022-12-31T01:55:24.165Z,10.33
2022-12-31T02:00:25.141Z,9.10
2022-12-31T02:02:53.276Z,11.50
2022-12-31T02:05:31.811Z,9.77
2022-12-31T02:08:00.033Z,7.68
2022-12-31T02:10:29.172Z,6.40
2022-12-31T02:12:57.539Z,5.75
2022-12-31T02:15:45.562Z,4.32
2022-12-31T02:18:29.002Z,4.93
2022-12-31T02:21:29.860Z,4.53
2022-12-31T02:24:32.434Z,2.40
2022-12-31T02:27:09.040Z,1.00
2022-12-31T02:30:09.394Z,0.87
2022-12-31T02:32:50.400Z,1.50
2022-12-31T02:35:28.683Z,1.35
2022-12-31T02:38:04.213Z,1.90
2022-12-31T02:43:03.895Z,2.40
2022-12-31T02:45:38.953Z,1.50
2022-12-31T02:48:29.325Z,1.75
2022-12-31T02:51:12.756Z,0.53
2022-12-31T02:54:19.726Z,1.20
2022-12-31T02:57:04.229Z,3.50
2022-12-31T02:59:59.278Z,0.63
2022-12-31T03:02:33.843Z,0.97
2022-12-31T03:05:03.701Z,0.47
2022-12-31T03:07:33.161Z,1.13
2022-12-31T03:10:01.487Z,0.93
2022-12-31T03:12:48.124Z,0.50
2022-12-31T03:15:20.630Z,0.90
2022-12-31T03:17:54.811Z,6.47
2022-12-31T03:20:45.506Z,0.30
2022-12-31T03:23:17.591Z,3.70
2022-12-31T03:25:46.226Z,1.27
2022-12-31T03:28:17.521Z,2.53
2022-12-31T03:30:50.048Z,1.03
2022-12-31T03:33:20.814Z,1.13
2022-12-31T03:35:50.164Z,1.97
2022-12-31T03:38:19.298Z,1.57
2022-12-31T03:40:50.182Z,3.60
2022-12-31T03:43:19.579Z,4.67
2022-12-31T03:45:51.370Z,4.33
2022-12-31T03:48:22.650Z,2.97
2022-12-31T03:50:51.088Z,2.63
2022-12-31T03:53:19.194Z,2.37
2022-12-31T03:55:51.894Z,1.60
2022-12-31T03:58:19.856Z,4.90
2022-12-31T04:00:47.717Z,4.63
2022-12-31T04:03:15.648Z,4.60
2022-12-31T04:05:44.866Z,5.73
2022-12-31T04:08:12.681Z,3.53
2022-12-31T04:10:40.464Z,5.33
2022-12-31T04:13:08.188Z,10.53
2022-12-31T04:15:35.875Z,38.00
2022-12-31T04:18:03.959Z,31.60
2022-12-31T04:20:31.705Z,27.73
2022-12-31T04:23:00.863Z,29.80
2022-12-31T04:25:28.655Z,26.20
2022-12-31T04:27:56.478Z,27.00
2022-12-31T04:30:24.308Z,28.38
2022-12-31T04:32:52.102Z,22.00
2022-12-31T04:35:20.456Z,26.80
2022-12-31T04:37:48.439Z,25.53
2022-12-31T04:40:17.735Z,45.10
2022-12-31T04:42:45.597Z,39.13
2022-12-31T04:45:13.318Z,115.20
2022-12-31T04:47:41.123Z,29.93
2022-12-31T04:50:09.534Z,57.37
2022-12-31T04:52:42.676Z,22.73
2022-12-31T04:55:11.637Z,14.90
2022-12-31T04:57:41.487Z,32.53
2022-12-31T05:00:10.929Z,10.73
2022-12-31T05:02:39.016Z,11.13
2022-12-31T05:05:08.208Z,63.90
2022-12-31T05:07:36.094Z,20.87
2022-12-31T05:10:05.467Z,12.23
2022-12-31T05:12:33.459Z,13.43
2022-12-31T05:15:02.740Z,8.87
2022-12-31T05:17:30.488Z,9.53
2022-12-31T05:19:58.438Z,12.53
2022-12-31T05:22:29.058Z,11.17
2022-12-31T05:24:58.305Z,11.83
2022-12-31T05:27:27.411Z,8.63
2022-12-31T05:29:55.142Z,7.80
2022-12-31T05:32:24.472Z,4.87
2022-12-31T05:34:53.584Z,6.33
2022-12-31T05:37:21.406Z,4.80
2022-12-31T05:39:49.408Z,6.37
2022-12-31T05:42:17.387Z,3.30
2022-12-31T05:44:45.141Z,5.83
2022-12-31T05:47:13.118Z,4.90
2022-12-31T05:49:42.406Z,4.23
2022-12-31T05:52:10.197Z,5.03
2022-12-31T05:54:37.920Z,5.27
2022-12-31T05:57:06.629Z,5.73
2022-12-31T05:59:35.364Z,7.50
2022-12-31T06:02:03.111Z,4.60
2022-12-31T06:04:30.879Z,6.23
2022-12-31T06:07:00.143Z,5.30
2022-12-31T06:09:27.984Z,3.70
2022-12-31T06:11:56.001Z,4.13
2022-12-31T06:14:23.888Z,3.40
2022-12-31T06:16:51.594Z,3.67
2022-12-31T06:19:19.411Z,3.43
2022-12-31T06:21:47.441Z,4.67
2022-12-31T06:24:16.884Z,4.67
2022-12-31T06:26:44.704Z,4.77
2022-12-31T06:29:12.575Z,5.60
2022-12-31T06:31:40.317Z,8.77
2022-12-31T06:34:08.152Z,8.37
2022-12-31T06:36:35.879Z,10.83
2022-12-31T06:39:03.915Z,6.40
2022-12-31T06:41:33.252Z,6.90
2022-12-31T06:44:01.002Z,7.27
2022-12-31T06:46:28.827Z,10.10
2022-12-31T06:48:56.729Z,22.37
2022-12-31T06:51:25.282Z,11.07
2022-12-31T06:53:53.193Z,8.13
2022-12-31T06:56:31.321Z,5.83
2022-12-31T06:59:04.911Z,10.30
2022-12-31T07:01:49.284Z,6.33
2022-12-31T07:05:21.246Z,7.13
2022-12-31T07:08:05.969Z,18.00
2022-12-31T07:10:48.238Z,9.73
2022-12-31T07:13:50.216Z,7.83
2022-12-31T07:16:45.714Z,5.10
2022-12-31T07:19:30.266Z,5.57
2022-12-31T07:21:59.832Z,7.73
2022-12-31T07:24:28.664Z,4.83
2022-12-31T07:27:20.547Z,5.67
2022-12-31T07:30:03.163Z,9.53
2022-12-31T07:32:59.220Z,11.30
2022-12-31T07:35:43.416Z,8.63
2022-12-31T07:38:25.853Z,5.30
2022-12-31T07:41:09.841Z,5.00
2022-12-31T07:43:56.130Z,6.53
2022-12-31T07:49:01.818Z,6.40
2022-12-31T07:51:30.467Z,6.00
2022-12-31T07:53:58.375Z,7.30
2022-12-31T07:56:26.201Z,6.27
2022-12-31T07:59:13.693Z,6.83
2022-12-31T08:01:49.916Z,4.53
2022-12-31T08:04:31.420Z,4.23
2022-12-31T08:07:12.150Z,4.33
2022-12-31T08:09:52.107Z,4.70
2022-12-31T08:12:23.302Z,4.67
2022-12-31T08:14:51.761Z,4.67
2022-12-31T08:17:20.651Z,5.37
2022-12-31T08:19:51.196Z,5.80
2022-12-31T08:23:04.820Z,3.38
2022-12-31T08:25:56.885Z,5.50
2022-12-31T08:28:46.002Z,5.72
2022-12-31T08:31:19.844Z,5.28
2022-12-31T08:34:05.544Z,6.13
2022-12-31T08:36:48.910Z,5.18
2022-12-31T08:39:37.116Z,5.32
2022-12-31T08:42:17.195Z,3.83
2022-12-31T08:44:55.647Z,5.25
2022-12-31T08:47:38.719Z,5.53
2022-12-31T08:50:14.019Z,4.33
2022-12-31T08:52:44.239Z,4.82
2022-12-31T08:55:16.409Z,4.97
2022-12-31T08:57:55.408Z,6.88
2022-12-31T09:00:24.193Z,5.30
2022-12-31T09:03:22.141Z,5.00
2022-12-31T09:06:02.265Z,9.52
2022-12-31T09:08:47.132Z,7.47
2022-12-31T09:11:24.046Z,3.67
2022-12-31T09:14:16.936Z,6.57
2022-12-31T09:16:59.544Z,6.82
2022-12-31T09:19:27.566Z,4.13
2022-12-31T09:21:56.489Z,7.68
2022-12-31T09:24:26.580Z,3.95
2022-12-31T09:27:05.937Z,3.97
2022-12-31T09:29:56.123Z,3.78
2022-12-31T09:32:39.268Z,3.92
2022-12-31T09:35:19.299Z,4.03
2022-12-31T09:37:50.689Z,2.85
2022-12-31T09:40:49.325Z,2.67
2022-12-31T09:44:01.698Z,4.78
2022-12-31T09:47:28.614Z,3.70
2022-12-31T09:50:40.857Z,2.97
2022-12-31T09:53:38.338Z,3.45
2022-12-31T09:56:17.371Z,4.30
2022-12-31T09:59:00.322Z,3.30
2022-12-31T10:01:46.448Z,2.88
2022-12-31T10:04:48.394Z,4.30
2022-12-31T10:07:35.438Z,4.75
2022-12-31T10:10:14.156Z,4.15
2022-12-31T10:13:33.946Z,3.75
2022-12-31T10:16:49.300Z,4.45
2022-12-31T10:19:52.322Z,3.10
2022-12-31T10:22:59.966Z,1.65
2022-12-31T10:25:48.409Z,3.65
2022-12-31T10:28:37.011Z,3.60
2022-12-31T10:31:16.061Z,5.05
2022-12-31T10:33:53.638Z,4.25
2022-12-31T10:36:32.265Z,4.35
2022-12-31T10:39:20.465Z,3.70
2022-12-31T10:42:38.375Z,3.22
2022-12-31T10:45:40.618Z,3.03
2022-12-31T10:49:23.164Z,4.05
2022-12-31T10:52:30.623Z,3.70
2022-12-31T10:55:48.121Z,6.05
2022-12-31T10:58:57.160Z,6.07
2022-12-31T11:01:48.121Z,6.03
2022-12-31T11:04:59.425Z,4.88
2022-12-31T11:08:02.700Z,10.38
2022-12-31T11:11:09.885Z,7.63
2022-12-31T11:14:20.376Z,10.43
2022-12-31T11:17:12.554Z,5.93
2022-12-31T11:19:59.030Z,6.90
2022-12-31T11:22:56.276Z,7.68
2022-12-31T11:25:40.075Z,8.35
2022-12-31T11:28:45.445Z,9.05
2022-12-31T11:31:34.757Z,7.45
2022-12-31T11:34:25.511Z,7.53
2022-12-31T11:37:18.120Z,7.55
2022-12-31T11:40:05.056Z,4.25
2022-12-31T11:42:50.274Z,4.45
2022-12-31T11:45:50.348Z,5.88
2022-12-31T11:48:32.949Z,5.00
2022-12-31T11:51:30.870Z,6.90
2022-12-31T11:54:37.186Z,3.97
2022-12-31T11:57:20.496Z,5.70
2022-12-31T11:59:59.240Z,6.63
2022-12-31T12:02:32.901Z,6.10
2022-12-31T12:05:10.675Z,9.05
2022-12-31T12:07:40.593Z,4.90
2022-12-31T12:10:23.861Z,5.82
2022-12-31T12:12:53.540Z,6.38
2022-12-31T12:15:26.563Z,5.70
2022-12-31T12:17:59.371Z,5.45
2022-12-31T12:20:33.082Z,3.75
2022-12-31T12:23:17.267Z,5.80
2022-12-31T12:25:45.275Z,5.15
2022-12-31T12:28:23.913Z,7.00
2022-12-31T12:31:00.784Z,3.53
2022-12-31T12:33:40.630Z,5.13
2022-12-31T12:36:11.505Z,4.30
2022-12-31T12:38:42.719Z,4.00
2022-12-31T12:41:20.504Z,4.22
2022-12-31T12:43:49.707Z,6.00
2022-12-31T12:46:27.770Z,5.32
2022-12-31T12:49:06.448Z,2.20
2022-12-31T12:52:04.003Z,4.22
2022-12-31T12:55:12.182Z,5.50
2022-12-31T12:58:00.223Z,3.80
2022-12-31T13:00:41.554Z,5.60
2022-12-31T13:04:14.721Z,4.40
2022-12-31T13:06:53.272Z,4.95
2022-12-31T13:09:42.893Z,5.22
2022-12-31T13:12:24.579Z,4.18
2022-12-31T13:15:02.517Z,2.95
2022-12-31T13:17:59.957Z,4.15
2022-12-31T13:20:41.500Z,5.20
2022-12-31T13:23:22.699Z,7.90
2022-12-31T13:26:07.579Z,7.50
2022-12-31T13:28:42.471Z,5.77
2022-12-31T13:31:17.846Z,8.18
2022-12-31T13:36:23.657Z,5.60
2022-12-31T13:38:54.519Z,7.25
2022-12-31T13:41:33.214Z,8.25
2022-12-31T13:44:13.576Z,5.85
2022-12-31T13:46:49.043Z,5.50
2022-12-31T13:49:24.265Z,8.45
2022-12-31T13:52:01.081Z,6.78
2022-12-31T13:54:41.142Z,6.53
2022-12-31T13:57:23.734Z,8.02
2022-12-31T14:00:01.553Z,4.80
2022-12-31T14:02:50.480Z,8.93
2022-12-31T14:05:29.406Z,7.40
2022-12-31T14:08:00.717Z,8.40
2022-12-31T14:10:43.008Z,6.15
2022-12-31T14:13:41.962Z,7.22
2022-12-31T14:16:24.778Z,7.95
2022-12-31T14:19:06.555Z,11.57
2022-12-31T14:21:47.362Z,6.00
2022-12-31T14:24:33.081Z,8.77
2022-12-31T14:27:08.637Z,5.70
2022-12-31T14:29:45.358Z,8.10
2022-12-31T14:32:57.513Z,7.00
2022-12-31T14:35:46.346Z,5.07
2022-12-31T14:38:35.311Z,4.70
2022-12-31T14:41:24.173Z,7.20
2022-12-31T14:44:14.982Z,4.38
2022-12-31T14:47:07.737Z,4.68
2022-12-31T14:49:51.925Z,6.82
2022-12-31T14:52:23.876Z,5.15
2022-12-31T14:55:03.577Z,5.13
2022-12-31T14:58:01.435Z,8.38
2022-12-31T15:00:32.560Z,8.27
2022-12-31T15:03:07.503Z,6.82
2022-12-31T15:05:38.195Z,9.80
2022-12-31T15:08:25.334Z,6.55
2022-12-31T15:11:18.136Z,6.25
2022-12-31T15:14:16.175Z,5.88
2022-12-31T15:16:57.738Z,8.20
2022-12-31T15:20:16.922Z,7.72
2022-12-31T15:22:48.783Z,5.00
2022-12-31T15:25:27.007Z,9.40
2022-12-31T15:27:57.626Z,4.45
2022-12-31T15:30:40.601Z,6.82
2022-12-31T15:33:19.977Z,7.20
2022-12-31T15:35:52.759Z,6.78
2022-12-31T15:38:35.007Z,7.50
2022-12-31T15:41:24.619Z,6.82
2022-12-31T15:44:00.953Z,8.50
2022-12-31T15:46:36.723Z,7.07
2022-12-31T15:49:15.640Z,6.57
2022-12-31T15:51:51.363Z,6.15
2022-12-31T15:54:27.627Z,7.45
2022-12-31T15:56:55.477Z,5.22
2022-12-31T15:59:26.047Z,6.50
2022-12-31T16:01:56.946Z,9.65
2022-12-31T16:04:28.641Z,7.32
2022-12-31T16:07:03.317Z,12.73
2022-12-31T16:09:35.799Z,10.23
2022-12-31T16:12:11.919Z,7.63
2022-12-31T16:14:46.097Z,6.13
2022-12-31T16:17:28.177Z,5.53
2022-12-31T16:19:58.504Z,6.63
2022-12-31T16:22:35.809Z,7.13
2022-12-31T16:25:30.236Z,5.13
2022-12-31T16:27:58.321Z,6.50
2022-12-31T16:30:30.002Z,5.80
2022-12-31T16:33:03.141Z,7.03
2022-12-31T16:35:33.594Z,6.80
2022-12-31T16:38:14.608Z,6.15
2022-12-31T16:40:58.715Z,5.32
2022-12-31T16:43:29.370Z,8.20
2022-12-31T16:46:07.033Z,3.90
2022-12-31T16:48:35.976Z,6.95
2022-12-31T16:51:05.373Z,7.32
2022-12-31T16:53:38.110Z,6.35
2022-12-31T16:56:09.097Z,5.78
2022-12-31T16:58:42.255Z,5.55
2022-12-31T17:01:18.260Z,7.28
2022-12-31T17:03:53.152Z,6.50
2022-12-31T17:06:23.118Z,4.30
2022-12-31T17:09:13.809Z,5.28
2022-12-31T17:11:50.755Z,5.55
2022-12-31T17:14:23.144Z,9.48
2022-12-31T17:17:02.560Z,6.32
2022-12-31T17:19:40.514Z,5.47
2022-12-31T17:22:16.185Z,5.00
2022-12-31T17:24:48.725Z,5.38
2022-12-31T17:27:17.779Z,5.43
2022-12-31T17:29:45.579Z,7.28
2022-12-31T17:32:31.119Z,7.82
2022-12-31T17:34:58.993Z,9.55
2022-12-31T17:37:29.946Z,5.95
2022-12-31T17:40:40.568Z,5.28
2022-12-31T17:42:50.274Z,6.05
2022-12-31T17:45:21.651Z,6.18
2022-12-31T17:47:53.643Z,5.78
2022-12-31T17:50:24.902Z,6.40
2022-12-31T17:52:57.178Z,5.85
2022-12-31T17:55:28.799Z,5.18
2022-12-31T17:57:58.193Z,7.55
2022-12-31T18:00:27.658Z,5.03
2022-12-31T18:02:55.647Z,5.38
2022-12-31T18:05:24.673Z,6.20
2022-12-31T18:07:53.368Z,6.47
2022-12-31T18:10:25.286Z,6.03
2022-12-31T18:12:54.625Z,4.35
2022-12-31T18:15:24.691Z,5.35
2022-12-31T18:17:52.794Z,6.07
2022-12-31T18:20:20.842Z,6.40
2022-12-31T18:22:48.853Z,5.43
2022-12-31T18:25:21.389Z,6.93
2022-12-31T18:27:51.458Z,4.78
2022-12-31T18:30:20.702Z,4.97
2022-12-31T18:32:48.744Z,5.38
2022-12-31T18:36:06.482Z,5.60
2022-12-31T18:38:12.740Z,4.72
2022-12-31T18:40:44.453Z,4.38
2022-12-31T18:43:16.464Z,7.78
2022-12-31T18:45:48.686Z,4.32
2022-12-31T18:48:17.788Z,7.20
2022-12-31T18:50:47.229Z,5.05
2022-12-31T18:53:20.112Z,5.30
2022-12-31T18:55:51.678Z,4.57
2022-12-31T18:58:20.232Z,4.90
2022-12-31T19:00:51.354Z,5.50
2022-12-31T19:03:22.374Z,4.53
2022-12-31T19:05:51.992Z,4.75
2022-12-31T19:08:22.179Z,7.10
2022-12-31T19:10:52.522Z,5.85
2022-12-31T19:13:21.078Z,7.10
2022-12-31T19:15:53.019Z,7.25
2022-12-31T19:18:20.977Z,7.68
2022-12-31T19:20:48.931Z,4.78
2022-12-31T19:23:20.602Z,5.43
2022-12-31T19:25:50.108Z,6.70
2022-12-31T19:28:21.087Z,5.22
2022-12-31T19:30:51.071Z,6.40
2022-12-31T19:33:19.645Z,5.40
2022-12-31T19:35:47.638Z,7.03
2022-12-31T19:38:20.466Z,6.75
2022-12-31T19:40:49.142Z,7.05
2022-12-31T19:43:20.370Z,9.65
2022-12-31T19:45:51.617Z,8.13
2022-12-31T19:48:24.770Z,8.35
2022-12-31T19:50:58.233Z,6.50
2022-12-31T19:53:27.707Z,7.70
2022-12-31T19:55:55.449Z,8.40
2022-12-31T19:58:26.178Z,5.20
2022-12-31T20:01:02.919Z,7.85
2022-12-31T20:03:32.464Z,6.03
2022-12-31T20:06:02.961Z,6.40
2022-12-31T20:08:31.085Z,6.03
2022-12-31T20:10:58.999Z,8.07
2022-12-31T20:13:26.998Z,7.05
2022-12-31T20:15:56.309Z,6.28
2022-12-31T20:18:24.059Z,5.38
2022-12-31T20:20:55.891Z,7.82
2022-12-31T20:23:24.060Z,8.27
2022-12-31T20:25:59.287Z,8.82
2022-12-31T20:30:56.974Z,5.55
2022-12-31T20:33:24.772Z,5.88
2022-12-31T20:35:52.628Z,6.97
2022-12-31T20:38:20.472Z,6.40
2022-12-31T20:40:48.193Z,9.70
2022-12-31T20:43:16.031Z,7.18
2022-12-31T20:45:44.664Z,9.98
2022-12-31T20:48:13.749Z,7.07
2022-12-31T20:50:41.493Z,6.13
2022-12-31T20:53:09.175Z,7.22
2022-12-31T20:55:38.015Z,8.55
2022-12-31T20:58:06.245Z,5.95
2022-12-31T21:00:34.057Z,8.05
2022-12-31T21:03:14.443Z,8.23
2022-12-31T21:05:54.323Z,8.30
2022-12-31T21:08:22.424Z,7.20
2022-12-31T21:10:50.987Z,9.75
2022-12-31T21:13:22.875Z,8.18
2022-12-31T21:15:52.556Z,7.97
2022-12-31T21:18:22.636Z,8.82
2022-12-31T21:20:53.294Z,9.77
2022-12-31T21:23:21.073Z,8.35
2022-12-31T21:25:50.274Z,8.80
2022-12-31T21:28:18.194Z,7.97
2022-12-31T21:30:46.108Z,9.52
2022-12-31T21:33:13.878Z,8.73
2022-12-31T21:35:45.672Z,7.72
2022-12-31T21:38:21.477Z,8.30
2022-12-31T21:40:49.667Z,8.70
2022-12-31T21:43:17.586Z,13.00
2022-12-31T21:45:46.042Z,10.25
2022-12-31T21:48:21.377Z,8.98
2022-12-31T21:50:51.373Z,10.20
2022-12-31T21:53:27.919Z,7.05
2022-12-31T21:56:09.077Z,6.93
2022-12-31T21:58:39.624Z,9.88
2022-12-31T22:01:33.946Z,5.82
2022-12-31T22:04:02.088Z,12.88
2022-12-31T22:06:30.599Z,8.48
2022-12-31T22:08:59.714Z,5.93
2022-12-31T22:11:28.534Z,10.10
2022-12-31T22:13:56.434Z,9.75
2022-12-31T22:16:24.345Z,9.90
2022-12-31T22:18:55.704Z,7.50
2022-12-31T22:21:26.594Z,10.90
2022-12-31T22:23:58.692Z,9.18
2022-12-31T22:26:29.288Z,5.55
2022-12-31T22:28:59.271Z,6.60
2022-12-31T22:31:32.595Z,6.60
2022-12-31T22:34:00.656Z,9.65
2022-12-31T22:36:28.401Z,12.02
2022-12-31T22:38:58.470Z,9.45
2022-12-31T22:41:28.901Z,10.15
2022-12-31T22:44:04.212Z,11.57
2022-12-31T22:46:34.337Z,9.18
2022-12-31T22:49:04.353Z,8.88
2022-12-31T22:51:55.753Z,7.85
2022-12-31T22:54:20.776Z,7.57
2022-12-31T22:56:50.024Z,10.80
2022-12-31T22:59:17.839Z,5.93
2022-12-31T23:01:45.789Z,12.77
2022-12-31T23:04:13.882Z,6.30
2022-12-31T23:06:44.747Z,8.80
2022-12-31T23:09:34.502Z,16.98
2022-12-31T23:12:06.132Z,11.02
2022-12-31T23:14:53.816Z,11.85
2022-12-31T23:17:44.068Z,11.95
2022-12-31T23:20:36.508Z,8.43
2022-12-31T23:23:09.696Z,10.73
2022-12-31T23:25:41.639Z,8.13
2022-12-31T23:28:14.242Z,9.15
2022-12-31T23:30:43.428Z,9.05
2022-12-31T23:33:15.763Z,9.68
2022-12-31T23:35:44.324Z,10.55
2022-12-31T23:38:13.554Z,9.30
2022-12-31T23:40:41.328Z,10.95
2022-12-31T23:43:20.421Z,10.02
2022-12-31T23:45:49.203Z,10.52
2022-12-31T23:48:17.028Z,10.77
2022-12-31T23:50:50.848Z,10.52
2022-12-31T23:53:20.956Z,12.98
2022-12-31T23:55:48.871Z,10.40
2022-12-31T23:58:17.999Z,11.35
